Weather Data

Pearl Creek Farm: 8878 N Farm Road 75, Walnut Grove MO 65770

<== Previous Day (Sunday 10 Jun 2018) | Next Day (Tuesday 12 Jun 2018) ==>

Summary Precipitation Data For Monday 11 June 2018

ElementValueUnits
Precipitation0"
Notes(none)
SourcePearl Creek Farm

Summary Temperature Data For Monday 11 June 2018

ElementValueUnits
High Temperature95 oF
Low Temperature72 oF
Average Temperature83 oF
High Humidity77 %
Low Humidity43 %
Average Humidity63 %
SourceSpringfield-Branson National Airport (SGF)

Detail Temperature Data For Monday 11 June 2018

Date / TimeTemp (F)RH (%)Dew Pt (F)Report Date / TimeSource
2018-06-11 00:52:00 76 64 63.0 2019-02-02 11:24:24.260017 Springfield-Branson National Airport (SGF)
2018-06-11 01:52:00 75 69 64.0 2019-02-02 11:24:24.260017 Springfield-Branson National Airport (SGF)
2018-06-11 02:52:00 74 71 64.0 2019-02-02 11:24:24.260017 Springfield-Branson National Airport (SGF)
2018-06-11 03:52:00 73 74 64.0 2019-02-02 11:24:24.260017 Springfield-Branson National Airport (SGF)
2018-06-11 04:52:00 72 76 64.0 2019-02-02 11:24:24.260017 Springfield-Branson National Airport (SGF)
2018-06-11 05:52:00 74 74 65.0 2019-02-02 11:24:24.260017 Springfield-Branson National Airport (SGF)
2018-06-11 06:52:00 78 69 67.0 2019-02-02 11:24:24.260017 Springfield-Branson National Airport (SGF)
2018-06-11 07:52:00 81 65 68.0 2019-02-02 11:24:24.260017 Springfield-Branson National Airport (SGF)
2018-06-11 08:52:00 84 59 68.0 2019-02-02 11:24:24.260017 Springfield-Branson National Airport (SGF)
2018-06-11 09:52:00 88 55 70.0 2019-02-02 11:24:24.260017 Springfield-Branson National Airport (SGF)
2018-06-11 10:52:00 89 53 70.0 2019-02-02 11:24:24.260017 Springfield-Branson National Airport (SGF)
2018-06-11 11:52:00 90 52 70.0 2019-02-02 11:24:24.260017 Springfield-Branson National Airport (SGF)
2018-06-11 12:52:00 91 50 70.0 2019-02-02 11:24:24.260017 Springfield-Branson National Airport (SGF)
2018-06-11 13:52:00 94 46 70.0 2019-02-02 11:24:24.260017 Springfield-Branson National Airport (SGF)
2018-06-11 14:52:00 95 43 69.0 2019-02-02 11:24:24.260017 Springfield-Branson National Airport (SGF)
2018-06-11 15:52:00 88 54 69.0 2019-02-02 11:24:24.260017 Springfield-Branson National Airport (SGF)
2018-06-11 16:52:00 86 57 69.0 2019-02-02 11:24:24.260017 Springfield-Branson National Airport (SGF)
2018-06-11 17:52:00 87 57 70.0 2019-02-02 11:24:24.260017 Springfield-Branson National Airport (SGF)
2018-06-11 18:52:00 85 63 71.0 2019-02-02 11:24:24.260017 Springfield-Branson National Airport (SGF)
2018-06-11 19:52:00 82 67 70.0 2019-02-02 11:24:24.260017 Springfield-Branson National Airport (SGF)
2018-06-11 20:52:00 81 72 71.0 2019-02-02 11:24:24.260017 Springfield-Branson National Airport (SGF)
2018-06-11 21:52:00 80 74 71.0 2019-02-02 11:24:24.260017 Springfield-Branson National Airport (SGF)
2018-06-11 22:52:00 80 74 71.0 2019-02-02 11:24:24.260017 Springfield-Branson National Airport (SGF)
2018-06-11 23:52:00 79 77 71.0 2019-02-02 11:24:24.260017 Springfield-Branson National Airport (SGF)

A total of 24 rows are displayed.